sensor_id;sensor_type;location;lat;lon;timestamp;temperature;humidity
6443;DHT22;3254;47.372;8.512;2023-06-10T00:01:45;20.00;1.00
6443;DHT22;3254;47.372;8.512;2023-06-10T00:04:15;19.90;1.00
6443;DHT22;3254;47.372;8.512;2023-06-10T00:06:43;19.90;1.00
6443;DHT22;3254;47.372;8.512;2023-06-10T00:09:09;19.90;1.00
6443;DHT22;3254;47.372;8.512;2023-06-10T00:11:41;19.80;1.00
6443;DHT22;3254;47.372;8.512;2023-06-10T00:14:07;19.70;1.00
6443;DHT22;3254;47.372;8.512;2023-06-10T00:16:33;19.70;1.00
6443;DHT22;3254;47.372;8.512;2023-06-10T00:19:00;19.60;1.00
6443;DHT22;3254;47.372;8.512;2023-06-10T00:21:31;19.50;1.00
6443;DHT22;3254;47.372;8.512;2023-06-10T00:24:07;19.40;1.00
6443;DHT22;3254;47.372;8.512;2023-06-10T00:26:38;19.30;1.00
6443;DHT22;3254;47.372;8.512;2023-06-10T00:29:04;19.30;1.00
6443;DHT22;3254;47.372;8.512;2023-06-10T00:31:30;19.20;1.00
6443;DHT22;3254;47.372;8.512;2023-06-10T00:33:56;19.20;1.00
6443;DHT22;3254;47.372;8.512;2023-06-10T00:36:24;19.20;1.00
6443;DHT22;3254;47.372;8.512;2023-06-10T00:38:52;19.10;1.00
6443;DHT22;3254;47.372;8.512;2023-06-10T00:41:18;19.10;1.00
6443;DHT22;3254;47.372;8.512;2023-06-10T00:43:44;19.00;1.00
6443;DHT22;3254;47.372;8.512;2023-06-10T00:46:12;19.00;1.00
6443;DHT22;3254;47.372;8.512;2023-06-10T00:48:41;19.00;1.00
6443;DHT22;3254;47.372;8.512;2023-06-10T00:51:08;18.90;1.00
6443;DHT22;3254;47.372;8.512;2023-06-10T00:53:35;18.90;1.00
6443;DHT22;3254;47.372;8.512;2023-06-10T00:56:02;18.80;1.00
6443;DHT22;3254;47.372;8.512;2023-06-10T00:58:28;18.80;1.00
6443;DHT22;3254;47.372;8.512;2023-06-10T01:00:56;18.70;1.00
6443;DHT22;3254;47.372;8.512;2023-06-10T01:03:23;18.70;1.00
6443;DHT22;3254;47.372;8.512;2023-06-10T01:06:06;18.60;1.00
6443;DHT22;3254;47.372;8.512;2023-06-10T01:08:42;18.50;1.00
6443;DHT22;3254;47.372;8.512;2023-06-10T01:11:17;18.50;1.00
6443;DHT22;3254;47.372;8.512;2023-06-10T01:13:45;18.40;1.00
6443;DHT22;3254;47.372;8.512;2023-06-10T01:16:12;18.30;1.00
6443;DHT22;3254;47.372;8.512;2023-06-10T01:18:41;18.30;1.00
6443;DHT22;3254;47.372;8.512;2023-06-10T01:21:07;18.30;1.00
6443;DHT22;3254;47.372;8.512;2023-06-10T01:23:34;18.20;1.00
6443;DHT22;3254;47.372;8.512;2023-06-10T01:26:06;18.10;1.00
6443;DHT22;3254;47.372;8.512;2023-06-10T01:28:54;18.00;1.00
6443;DHT22;3254;47.372;8.512;2023-06-10T01:34:01;17.70;1.00
6443;DHT22;3254;47.372;8.512;2023-06-10T01:36:28;17.60;1.00
6443;DHT22;3254;47.372;8.512;2023-06-10T01:38:55;17.50;1.00
6443;DHT22;3254;47.372;8.512;2023-06-10T01:41:22;17.50;1.00
6443;DHT22;3254;47.372;8.512;2023-06-10T01:43:48;17.50;1.00
6443;DHT22;3254;47.372;8.512;2023-06-10T01:46:15;17.60;1.00
6443;DHT22;3254;47.372;8.512;2023-06-10T01:48:43;17.60;1.00
6443;DHT22;3254;47.372;8.512;2023-06-10T01:51:09;17.60;1.00
6443;DHT22;3254;47.372;8.512;2023-06-10T01:53:34;17.50;1.00
6443;DHT22;3254;47.372;8.512;2023-06-10T01:56:00;17.50;1.00
6443;DHT22;3254;47.372;8.512;2023-06-10T01:58:27;17.40;1.00
6443;DHT22;3254;47.372;8.512;2023-06-10T02:00:54;17.30;1.00
6443;DHT22;3254;47.372;8.512;2023-06-10T02:03:20;17.30;1.00
6443;DHT22;3254;47.372;8.512;2023-06-10T02:05:46;17.30;1.00
6443;DHT22;3254;47.372;8.512;2023-06-10T02:08:11;17.20;1.00
6443;DHT22;3254;47.372;8.512;2023-06-10T02:10:37;17.20;1.00
6443;DHT22;3254;47.372;8.512;2023-06-10T02:13:03;17.10;1.00
6443;DHT22;3254;47.372;8.512;2023-06-10T02:15:31;17.10;1.00
6443;DHT22;3254;47.372;8.512;2023-06-10T02:17:56;17.10;1.00
6443;DHT22;3254;47.372;8.512;2023-06-10T02:20:23;17.00;1.00
6443;DHT22;3254;47.372;8.512;2023-06-10T02:22:49;16.90;1.00
6443;DHT22;3254;47.372;8.512;2023-06-10T02:25:14;16.80;1.00
6443;DHT22;3254;47.372;8.512;2023-06-10T02:27:40;16.80;1.00
6443;DHT22;3254;47.372;8.512;2023-06-10T02:30:06;16.80;1.00
6443;DHT22;3254;47.372;8.512;2023-06-10T02:32:34;16.80;1.00
6443;DHT22;3254;47.372;8.512;2023-06-10T02:35:00;16.90;1.00
6443;DHT22;3254;47.372;8.512;2023-06-10T02:37:26;16.90;1.00
6443;DHT22;3254;47.372;8.512;2023-06-10T02:39:52;16.80;1.00
6443;DHT22;3254;47.372;8.512;2023-06-10T02:42:18;16.80;1.00
6443;DHT22;3254;47.372;8.512;2023-06-10T02:44:43;16.80;1.00
6443;DHT22;3254;47.372;8.512;2023-06-10T02:47:10;16.70;1.00
6443;DHT22;3254;47.372;8.512;2023-06-10T02:49:36;16.60;1.00
6443;DHT22;3254;47.372;8.512;2023-06-10T02:52:02;16.70;1.00
6443;DHT22;3254;47.372;8.512;2023-06-10T02:54:27;16.60;1.00
6443;DHT22;3254;47.372;8.512;2023-06-10T02:56:53;16.60;1.00
6443;DHT22;3254;47.372;8.512;2023-06-10T02:59:22;16.60;1.00
6443;DHT22;3254;47.372;8.512;2023-06-10T03:01:48;16.50;1.00
6443;DHT22;3254;47.372;8.512;2023-06-10T03:04:14;16.50;1.00
6443;DHT22;3254;47.372;8.512;2023-06-10T03:06:40;16.60;1.00
6443;DHT22;3254;47.372;8.512;2023-06-10T03:09:10;16.60;1.00
6443;DHT22;3254;47.372;8.512;2023-06-10T03:11:36;16.50;1.00
6443;DHT22;3254;47.372;8.512;2023-06-10T03:14:02;16.40;1.00
6443;DHT22;3254;47.372;8.512;2023-06-10T03:16:28;16.40;1.00
6443;DHT22;3254;47.372;8.512;2023-06-10T03:18:55;16.30;1.00
6443;DHT22;3254;47.372;8.512;2023-06-10T03:21:21;16.40;1.00
6443;DHT22;3254;47.372;8.512;2023-06-10T03:23:47;16.40;1.00
6443;DHT22;3254;47.372;8.512;2023-06-10T03:26:13;16.40;1.00
6443;DHT22;3254;47.372;8.512;2023-06-10T03:28:39;16.40;1.00
6443;DHT22;3254;47.372;8.512;2023-06-10T03:31:07;16.30;1.00
6443;DHT22;3254;47.372;8.512;2023-06-10T03:33:33;16.40;1.00
6443;DHT22;3254;47.372;8.512;2023-06-10T03:36:00;16.30;1.00
6443;DHT22;3254;47.372;8.512;2023-06-10T03:38:27;16.20;1.00
6443;DHT22;3254;47.372;8.512;2023-06-10T03:40:53;16.30;1.00
6443;DHT22;3254;47.372;8.512;2023-06-10T03:43:18;16.20;1.00
6443;DHT22;3254;47.372;8.512;2023-06-10T03:45:45;16.20;1.00
6443;DHT22;3254;47.372;8.512;2023-06-10T03:48:13;16.20;1.00
6443;DHT22;3254;47.372;8.512;2023-06-10T03:50:39;16.20;1.00
6443;DHT22;3254;47.372;8.512;2023-06-10T03:53:05;16.10;1.00
6443;DHT22;3254;47.372;8.512;2023-06-10T03:55:30;16.10;1.00
6443;DHT22;3254;47.372;8.512;2023-06-10T03:57:57;16.00;1.00
6443;DHT22;3254;47.372;8.512;2023-06-10T04:00:23;16.00;1.00
6443;DHT22;3254;47.372;8.512;2023-06-10T04:02:49;16.00;1.00
6443;DHT22;3254;47.372;8.512;2023-06-10T04:05:17;15.90;1.00
6443;DHT22;3254;47.372;8.512;2023-06-10T04:07:43;16.00;1.00
6443;DHT22;3254;47.372;8.512;2023-06-10T04:10:13;16.00;1.00
6443;DHT22;3254;47.372;8.512;2023-06-10T04:12:38;16.10;1.00
6443;DHT22;3254;47.372;8.512;2023-06-10T04:15:05;16.10;1.00
6443;DHT22;3254;47.372;8.512;2023-06-10T04:17:31;16.10;1.00
6443;DHT22;3254;47.372;8.512;2023-06-10T04:19:57;16.10;1.00
6443;DHT22;3254;47.372;8.512;2023-06-10T04:22:23;16.10;1.00
6443;DHT22;3254;47.372;8.512;2023-06-10T04:24:50;16.10;1.00
6443;DHT22;3254;47.372;8.512;2023-06-10T04:27:16;16.00;1.00
6443;DHT22;3254;47.372;8.512;2023-06-10T04:29:41;16.00;1.00
6443;DHT22;3254;47.372;8.512;2023-06-10T04:32:07;16.00;1.00
6443;DHT22;3254;47.372;8.512;2023-06-10T04:34:34;16.00;1.00
6443;DHT22;3254;47.372;8.512;2023-06-10T04:37:00;16.00;1.00
6443;DHT22;3254;47.372;8.512;2023-06-10T04:39:26;16.00;1.00
6443;DHT22;3254;47.372;8.512;2023-06-10T04:41:52;16.10;1.00
6443;DHT22;3254;47.372;8.512;2023-06-10T04:44:17;16.10;1.00
6443;DHT22;3254;47.372;8.512;2023-06-10T04:46:44;16.20;1.00
6443;DHT22;3254;47.372;8.512;2023-06-10T04:49:09;16.30;1.00
6443;DHT22;3254;47.372;8.512;2023-06-10T04:51:35;16.50;1.00
6443;DHT22;3254;47.372;8.512;2023-06-10T04:54:01;16.60;1.00
6443;DHT22;3254;47.372;8.512;2023-06-10T04:56:30;16.60;1.00
6443;DHT22;3254;47.372;8.512;2023-06-10T04:58:59;16.70;1.00
6443;DHT22;3254;47.372;8.512;2023-06-10T05:01:25;16.80;1.00
6443;DHT22;3254;47.372;8.512;2023-06-10T05:03:52;17.00;1.00
6443;DHT22;3254;47.372;8.512;2023-06-10T05:06:17;17.00;1.00
6443;DHT22;3254;47.372;8.512;2023-06-10T05:08:43;17.10;1.00
6443;DHT22;3254;47.372;8.512;2023-06-10T05:11:09;17.30;1.00
6443;DHT22;3254;47.372;8.512;2023-06-10T05:13:35;17.30;1.00
6443;DHT22;3254;47.372;8.512;2023-06-10T05:16:01;17.30;1.00
6443;DHT22;3254;47.372;8.512;2023-06-10T05:18:26;17.30;1.00
6443;DHT22;3254;47.372;8.512;2023-06-10T05:20:52;17.40;1.00
6443;DHT22;3254;47.372;8.512;2023-06-10T05:23:19;17.50;1.00
6443;DHT22;3254;47.372;8.512;2023-06-10T05:25:45;17.60;1.00
6443;DHT22;3254;47.372;8.512;2023-06-10T05:28:11;17.70;1.00
6443;DHT22;3254;47.372;8.512;2023-06-10T05:30:37;17.80;1.00
6443;DHT22;3254;47.372;8.512;2023-06-10T05:33:04;17.80;1.00
6443;DHT22;3254;47.372;8.512;2023-06-10T05:35:30;18.00;1.00
6443;DHT22;3254;47.372;8.512;2023-06-10T05:37:56;18.00;1.00
6443;DHT22;3254;47.372;8.512;2023-06-10T05:40:23;18.10;1.00
6443;DHT22;3254;47.372;8.512;2023-06-10T05:42:49;18.20;1.00
6443;DHT22;3254;47.372;8.512;2023-06-10T05:45:14;18.30;1.00
6443;DHT22;3254;47.372;8.512;2023-06-10T05:47:42;18.30;1.00
6443;DHT22;3254;47.372;8.512;2023-06-10T05:50:08;18.40;1.00
6443;DHT22;3254;47.372;8.512;2023-06-10T05:52:36;18.40;1.00
6443;DHT22;3254;47.372;8.512;2023-06-10T05:55:03;18.50;1.00
6443;DHT22;3254;47.372;8.512;2023-06-10T05:57:29;18.60;1.00
6443;DHT22;3254;47.372;8.512;2023-06-10T05:59:54;18.70;1.00
6443;DHT22;3254;47.372;8.512;2023-06-10T06:02:20;18.70;1.00
6443;DHT22;3254;47.372;8.512;2023-06-10T06:04:46;18.70;1.00
6443;DHT22;3254;47.372;8.512;2023-06-10T06:07:12;18.80;1.00
6443;DHT22;3254;47.372;8.512;2023-06-10T06:09:38;18.80;1.00
6443;DHT22;3254;47.372;8.512;2023-06-10T06:12:06;18.80;1.00
6443;DHT22;3254;47.372;8.512;2023-06-10T06:14:36;18.90;1.00
6443;DHT22;3254;47.372;8.512;2023-06-10T06:17:04;19.00;1.00
6443;DHT22;3254;47.372;8.512;2023-06-10T06:19:30;19.00;1.00
6443;DHT22;3254;47.372;8.512;2023-06-10T06:21:55;19.10;1.00
6443;DHT22;3254;47.372;8.512;2023-06-10T06:24:21;19.10;1.00
6443;DHT22;3254;47.372;8.512;2023-06-10T06:26:46;19.20;1.00
6443;DHT22;3254;47.372;8.512;2023-06-10T06:29:13;19.30;1.00
6443;DHT22;3254;47.372;8.512;2023-06-10T06:31:39;19.30;1.00
6443;DHT22;3254;47.372;8.512;2023-06-10T06:34:04;19.40;1.00
6443;DHT22;3254;47.372;8.512;2023-06-10T06:36:30;19.40;1.00
6443;DHT22;3254;47.372;8.512;2023-06-10T06:38:56;19.40;1.00
6443;DHT22;3254;47.372;8.512;2023-06-10T06:41:26;19.50;1.00
6443;DHT22;3254;47.372;8.512;2023-06-10T06:43:51;19.70;1.00
6443;DHT22;3254;47.372;8.512;2023-06-10T06:46:19;19.70;1.00
6443;DHT22;3254;47.372;8.512;2023-06-10T06:48:48;19.70;1.00
6443;DHT22;3254;47.372;8.512;2023-06-10T06:51:13;19.80;1.00
6443;DHT22;3254;47.372;8.512;2023-06-10T06:53:41;19.80;1.00
6443;DHT22;3254;47.372;8.512;2023-06-10T06:56:14;19.80;1.00
6443;DHT22;3254;47.372;8.512;2023-06-10T06:58:39;19.80;1.00
6443;DHT22;3254;47.372;8.512;2023-06-10T07:01:10;19.90;1.00
6443;DHT22;3254;47.372;8.512;2023-06-10T07:03:38;20.00;1.00
6443;DHT22;3254;47.372;8.512;2023-06-10T07:06:05;20.00;1.00
6443;DHT22;3254;47.372;8.512;2023-06-10T07:08:31;20.20;1.00
6443;DHT22;3254;47.372;8.512;2023-06-10T07:10:56;20.40;1.00
6443;DHT22;3254;47.372;8.512;2023-06-10T07:13:22;20.60;1.00
6443;DHT22;3254;47.372;8.512;2023-06-10T07:15:47;21.20;1.00
6443;DHT22;3254;47.372;8.512;2023-06-10T07:18:15;22.10;1.00
6443;DHT22;3254;47.372;8.512;2023-06-10T07:20:42;23.10;1.00
6443;DHT22;3254;47.372;8.512;2023-06-10T07:23:08;23.90;1.00
6443;DHT22;3254;47.372;8.512;2023-06-10T07:25:34;24.70;1.00
6443;DHT22;3254;47.372;8.512;2023-06-10T07:28:00;25.20;1.00
6443;DHT22;3254;47.372;8.512;2023-06-10T07:30:26;25.50;1.00
6443;DHT22;3254;47.372;8.512;2023-06-10T07:32:52;25.90;1.00
6443;DHT22;3254;47.372;8.512;2023-06-10T07:35:20;26.30;1.00
6443;DHT22;3254;47.372;8.512;2023-06-10T07:37:46;25.90;1.00
6443;DHT22;3254;47.372;8.512;2023-06-10T07:40:21;25.90;1.00
6443;DHT22;3254;47.372;8.512;2023-06-10T07:42:46;26.30;1.00
6443;DHT22;3254;47.372;8.512;2023-06-10T07:45:12;27.20;1.00
6443;DHT22;3254;47.372;8.512;2023-06-10T07:47:38;27.60;1.00
6443;DHT22;3254;47.372;8.512;2023-06-10T07:50:03;28.10;1.00
6443;DHT22;3254;47.372;8.512;2023-06-10T07:52:29;27.80;1.00
6443;DHT22;3254;47.372;8.512;2023-06-10T07:54:56;27.70;1.00
6443;DHT22;3254;47.372;8.512;2023-06-10T07:57:23;27.40;1.00
6443;DHT22;3254;47.372;8.512;2023-06-10T07:59:49;27.70;1.00
6443;DHT22;3254;47.372;8.512;2023-06-10T08:02:17;27.60;1.00
6443;DHT22;3254;47.372;8.512;2023-06-10T08:04:43;27.30;1.00
6443;DHT22;3254;47.372;8.512;2023-06-10T08:07:08;27.20;1.00
6443;DHT22;3254;47.372;8.512;2023-06-10T08:09:34;27.30;1.00
6443;DHT22;3254;47.372;8.512;2023-06-10T08:12:00;27.70;1.00
6443;DHT22;3254;47.372;8.512;2023-06-10T08:14:25;28.40;1.00
6443;DHT22;3254;47.372;8.512;2023-06-10T08:16:51;28.70;1.00
6443;DHT22;3254;47.372;8.512;2023-06-10T08:19:17;28.80;1.00
6443;DHT22;3254;47.372;8.512;2023-06-10T08:21:42;28.60;1.00
6443;DHT22;3254;47.372;8.512;2023-06-10T08:24:09;28.90;1.00
6443;DHT22;3254;47.372;8.512;2023-06-10T08:26:35;29.40;1.00
6443;DHT22;3254;47.372;8.512;2023-06-10T08:29:01;29.50;1.00
6443;DHT22;3254;47.372;8.512;2023-06-10T08:31:27;30.00;1.00
6443;DHT22;3254;47.372;8.512;2023-06-10T08:33:52;30.20;1.00
6443;DHT22;3254;47.372;8.512;2023-06-10T08:36:19;30.60;1.00
6443;DHT22;3254;47.372;8.512;2023-06-10T08:38:46;30.70;1.00
6443;DHT22;3254;47.372;8.512;2023-06-10T08:41:14;30.20;1.00
6443;DHT22;3254;47.372;8.512;2023-06-10T08:43:58;30.20;1.00
6443;DHT22;3254;47.372;8.512;2023-06-10T08:46:25;30.80;1.00
6443;DHT22;3254;47.372;8.512;2023-06-10T08:48:53;31.00;1.00
6443;DHT22;3254;47.372;8.512;2023-06-10T08:51:22;31.60;1.00
6443;DHT22;3254;47.372;8.512;2023-06-10T08:53:57;32.00;1.00
6443;DHT22;3254;47.372;8.512;2023-06-10T08:56:25;32.60;1.00
6443;DHT22;3254;47.372;8.512;2023-06-10T08:58:51;31.60;1.00
6443;DHT22;3254;47.372;8.512;2023-06-10T09:01:20;31.30;1.00
6443;DHT22;3254;47.372;8.512;2023-06-10T09:03:45;31.20;1.00
6443;DHT22;3254;47.372;8.512;2023-06-10T09:06:11;31.70;1.00
6443;DHT22;3254;47.372;8.512;2023-06-10T09:08:39;31.80;1.00
6443;DHT22;3254;47.372;8.512;2023-06-10T09:11:04;32.20;1.00
6443;DHT22;3254;47.372;8.512;2023-06-10T09:13:30;32.10;1.00
6443;DHT22;3254;47.372;8.512;2023-06-10T09:15:56;32.00;1.00
6443;DHT22;3254;47.372;8.512;2023-06-10T09:18:28;31.70;1.00
6443;DHT22;3254;47.372;8.512;2023-06-10T09:20:53;31.70;1.00
6443;DHT22;3254;47.372;8.512;2023-06-10T09:23:19;32.20;1.00
6443;DHT22;3254;47.372;8.512;2023-06-10T09:25:45;32.30;1.00
6443;DHT22;3254;47.372;8.512;2023-06-10T09:28:15;32.10;1.00
6443;DHT22;3254;47.372;8.512;2023-06-10T09:30:41;32.40;1.00
6443;DHT22;3254;47.372;8.512;2023-06-10T09:33:13;33.20;1.00
6443;DHT22;3254;47.372;8.512;2023-06-10T09:35:50;33.90;1.00
6443;DHT22;3254;47.372;8.512;2023-06-10T09:38:22;34.80;1.00
6443;DHT22;3254;47.372;8.512;2023-06-10T09:40:52;34.80;1.00
6443;DHT22;3254;47.372;8.512;2023-06-10T09:43:20;34.80;1.00
6443;DHT22;3254;47.372;8.512;2023-06-10T09:45:52;34.60;1.00
6443;DHT22;3254;47.372;8.512;2023-06-10T09:48:21;34.30;1.00
6443;DHT22;3254;47.372;8.512;2023-06-10T09:50:49;34.40;1.00
6443;DHT22;3254;47.372;8.512;2023-06-10T09:53:17;34.80;1.00
6443;DHT22;3254;47.372;8.512;2023-06-10T09:55:43;35.20;1.00
6443;DHT22;3254;47.372;8.512;2023-06-10T09:58:09;36.00;1.00
6443;DHT22;3254;47.372;8.512;2023-06-10T10:00:35;35.80;1.00
6443;DHT22;3254;47.372;8.512;2023-06-10T10:03:01;35.20;1.00
6443;DHT22;3254;47.372;8.512;2023-06-10T10:05:27;35.50;1.00
6443;DHT22;3254;47.372;8.512;2023-06-10T10:07:53;35.10;1.00
6443;DHT22;3254;47.372;8.512;2023-06-10T10:10:20;34.30;1.00
6443;DHT22;3254;47.372;8.512;2023-06-10T10:12:47;34.00;1.00
6443;DHT22;3254;47.372;8.512;2023-06-10T10:15:16;34.50;1.00
6443;DHT22;3254;47.372;8.512;2023-06-10T10:18:03;34.80;1.00
6443;DHT22;3254;47.372;8.512;2023-06-10T10:20:33;34.50;1.00
6443;DHT22;3254;47.372;8.512;2023-06-10T10:23:02;34.30;1.00
6443;DHT22;3254;47.372;8.512;2023-06-10T10:25:32;35.10;1.00
6443;DHT22;3254;47.372;8.512;2023-06-10T10:28:08;35.50;1.00
6443;DHT22;3254;47.372;8.512;2023-06-10T10:30:40;35.70;1.00
6443;DHT22;3254;47.372;8.512;2023-06-10T10:33:21;35.90;1.00
6443;DHT22;3254;47.372;8.512;2023-06-10T10:35:48;36.50;1.00
6443;DHT22;3254;47.372;8.512;2023-06-10T10:38:16;37.10;1.00
6443;DHT22;3254;47.372;8.512;2023-06-10T10:40:44;37.80;1.00
6443;DHT22;3254;47.372;8.512;2023-06-10T10:43:10;36.80;1.00
6443;DHT22;3254;47.372;8.512;2023-06-10T10:45:37;36.40;1.00
6443;DHT22;3254;47.372;8.512;2023-06-10T10:48:14;36.90;1.00
6443;DHT22;3254;47.372;8.512;2023-06-10T10:50:40;36.90;1.00
6443;DHT22;3254;47.372;8.512;2023-06-10T10:53:08;35.80;1.00
6443;DHT22;3254;47.372;8.512;2023-06-10T10:55:33;34.00;1.00
6443;DHT22;3254;47.372;8.512;2023-06-10T10:58:07;32.90;1.00
6443;DHT22;3254;47.372;8.512;2023-06-10T11:00:37;33.70;1.00
6443;DHT22;3254;47.372;8.512;2023-06-10T11:03:06;35.10;1.00
6443;DHT22;3254;47.372;8.512;2023-06-10T11:05:43;35.90;1.00
6443;DHT22;3254;47.372;8.512;2023-06-10T11:08:10;36.00;1.00
6443;DHT22;3254;47.372;8.512;2023-06-10T11:10:51;36.50;1.00
6443;DHT22;3254;47.372;8.512;2023-06-10T11:13:21;36.60;1.00
6443;DHT22;3254;47.372;8.512;2023-06-10T11:15:48;34.90;1.00
6443;DHT22;3254;47.372;8.512;2023-06-10T11:18:23;34.00;1.00
6443;DHT22;3254;47.372;8.512;2023-06-10T11:23:42;36.30;1.00
6443;DHT22;3254;47.372;8.512;2023-06-10T11:26:14;37.70;1.00
6443;DHT22;3254;47.372;8.512;2023-06-10T11:31:19;38.80;1.00
6443;DHT22;3254;47.372;8.512;2023-06-10T11:33:47;39.10;1.00
6443;DHT22;3254;47.372;8.512;2023-06-10T11:36:13;39.10;1.00
6443;DHT22;3254;47.372;8.512;2023-06-10T11:38:39;39.00;1.00
6443;DHT22;3254;47.372;8.512;2023-06-10T11:41:05;38.60;1.00
6443;DHT22;3254;47.372;8.512;2023-06-10T11:43:31;38.40;1.00
6443;DHT22;3254;47.372;8.512;2023-06-10T11:45:57;38.90;1.00
6443;DHT22;3254;47.372;8.512;2023-06-10T11:48:23;39.50;1.00
6443;DHT22;3254;47.372;8.512;2023-06-10T11:50:48;39.00;1.00
6443;DHT22;3254;47.372;8.512;2023-06-10T11:53:14;37.50;1.00
6443;DHT22;3254;47.372;8.512;2023-06-10T11:55:47;36.20;1.00
6443;DHT22;3254;47.372;8.512;2023-06-10T11:58:14;36.70;1.00
6443;DHT22;3254;47.372;8.512;2023-06-10T12:00:55;37.80;1.00
6443;DHT22;3254;47.372;8.512;2023-06-10T12:03:24;38.60;1.00
6443;DHT22;3254;47.372;8.512;2023-06-10T12:06:00;38.50;1.00
6443;DHT22;3254;47.372;8.512;2023-06-10T12:08:26;38.80;1.00
6443;DHT22;3254;47.372;8.512;2023-06-10T12:10:53;40.20;1.00
6443;DHT22;3254;47.372;8.512;2023-06-10T12:13:19;39.80;1.00
6443;DHT22;3254;47.372;8.512;2023-06-10T12:15:48;38.40;1.00
6443;DHT22;3254;47.372;8.512;2023-06-10T12:18:20;38.40;1.00
6443;DHT22;3254;47.372;8.512;2023-06-10T12:20:47;39.80;1.00
6443;DHT22;3254;47.372;8.512;2023-06-10T12:23:14;39.90;1.00
6443;DHT22;3254;47.372;8.512;2023-06-10T12:25:55;40.50;1.00
6443;DHT22;3254;47.372;8.512;2023-06-10T12:28:22;40.90;1.00
6443;DHT22;3254;47.372;8.512;2023-06-10T12:30:48;40.90;1.00
6443;DHT22;3254;47.372;8.512;2023-06-10T12:33:18;41.20;1.00
6443;DHT22;3254;47.372;8.512;2023-06-10T12:35:52;41.80;1.00
6443;DHT22;3254;47.372;8.512;2023-06-10T12:38:25;42.30;1.00
6443;DHT22;3254;47.372;8.512;2023-06-10T12:40:53;42.90;1.00
6443;DHT22;3254;47.372;8.512;2023-06-10T12:43:23;40.00;1.00
6443;DHT22;3254;47.372;8.512;2023-06-10T12:45:49;38.00;1.00
6443;DHT22;3254;47.372;8.512;2023-06-10T12:48:22;36.70;1.00
6443;DHT22;3254;47.372;8.512;2023-06-10T12:50:52;35.30;1.00
6443;DHT22;3254;47.372;8.512;2023-06-10T12:53:19;34.90;1.00
6443;DHT22;3254;47.372;8.512;2023-06-10T12:55:45;36.60;1.00
6443;DHT22;3254;47.372;8.512;2023-06-10T12:58:11;38.60;1.00
6443;DHT22;3254;47.372;8.512;2023-06-10T13:00:37;39.50;1.00
6443;DHT22;3254;47.372;8.512;2023-06-10T13:03:03;40.40;1.00
6443;DHT22;3254;47.372;8.512;2023-06-10T13:05:31;40.80;1.00
6443;DHT22;3254;47.372;8.512;2023-06-10T13:07:57;40.70;1.00
6443;DHT22;3254;47.372;8.512;2023-06-10T13:10:23;41.70;1.00
6443;DHT22;3254;47.372;8.512;2023-06-10T13:12:50;41.50;1.00
6443;DHT22;3254;47.372;8.512;2023-06-10T13:15:17;42.10;1.00
6443;DHT22;3254;47.372;8.512;2023-06-10T13:17:44;41.80;1.00
6443;DHT22;3254;47.372;8.512;2023-06-10T13:20:11;42.70;1.00
6443;DHT22;3254;47.372;8.512;2023-06-10T13:22:36;43.20;1.00
6443;DHT22;3254;47.372;8.512;2023-06-10T13:25:03;43.50;1.00
6443;DHT22;3254;47.372;8.512;2023-06-10T13:27:29;44.30;1.00
6443;DHT22;3254;47.372;8.512;2023-06-10T13:29:55;44.00;1.00
6443;DHT22;3254;47.372;8.512;2023-06-10T13:32:21;43.40;1.00
6443;DHT22;3254;47.372;8.512;2023-06-10T13:34:46;41.90;1.00
6443;DHT22;3254;47.372;8.512;2023-06-10T13:37:13;41.30;1.00
6443;DHT22;3254;47.372;8.512;2023-06-10T13:39:39;41.90;1.00
6443;DHT22;3254;47.372;8.512;2023-06-10T13:42:05;42.90;1.00
6443;DHT22;3254;47.372;8.512;2023-06-10T13:44:33;43.30;1.00
6443;DHT22;3254;47.372;8.512;2023-06-10T13:47:03;44.00;1.00
6443;DHT22;3254;47.372;8.512;2023-06-10T13:49:29;44.00;1.00
6443;DHT22;3254;47.372;8.512;2023-06-10T13:51:56;43.40;1.00
6443;DHT22;3254;47.372;8.512;2023-06-10T13:54:22;42.70;1.00
6443;DHT22;3254;47.372;8.512;2023-06-10T13:56:47;40.80;1.00
6443;DHT22;3254;47.372;8.512;2023-06-10T13:59:13;39.70;1.00
6443;DHT22;3254;47.372;8.512;2023-06-10T14:01:40;38.30;1.00
6443;DHT22;3254;47.372;8.512;2023-06-10T14:04:06;37.70;1.00
6443;DHT22;3254;47.372;8.512;2023-06-10T14:06:33;37.10;1.00
6443;DHT22;3254;47.372;8.512;2023-06-10T14:09:00;36.10;1.00
6443;DHT22;3254;47.372;8.512;2023-06-10T14:11:25;36.50;1.00
6443;DHT22;3254;47.372;8.512;2023-06-10T14:13:51;36.10;1.00
6443;DHT22;3254;47.372;8.512;2023-06-10T14:16:17;37.40;1.00
6443;DHT22;3254;47.372;8.512;2023-06-10T14:18:42;39.10;1.00
6443;DHT22;3254;47.372;8.512;2023-06-10T14:21:08;41.00;1.00
6443;DHT22;3254;47.372;8.512;2023-06-10T14:23:33;42.00;1.00
6443;DHT22;3254;47.372;8.512;2023-06-10T14:25:59;42.90;1.00
6443;DHT22;3254;47.372;8.512;2023-06-10T14:28:26;41.60;1.00
6443;DHT22;3254;47.372;8.512;2023-06-10T14:30:53;40.00;1.00
6443;DHT22;3254;47.372;8.512;2023-06-10T14:33:18;39.00;1.00
6443;DHT22;3254;47.372;8.512;2023-06-10T14:35:44;37.80;1.00
6443;DHT22;3254;47.372;8.512;2023-06-10T14:38:10;36.30;1.00
6443;DHT22;3254;47.372;8.512;2023-06-10T14:40:35;35.70;1.00
6443;DHT22;3254;47.372;8.512;2023-06-10T14:43:01;36.70;1.00
6443;DHT22;3254;47.372;8.512;2023-06-10T14:45:29;37.90;1.00
6443;DHT22;3254;47.372;8.512;2023-06-10T14:47:55;38.40;1.00
6443;DHT22;3254;47.372;8.512;2023-06-10T14:50:20;38.80;1.00
6443;DHT22;3254;47.372;8.512;2023-06-10T14:52:46;39.90;1.00
6443;DHT22;3254;47.372;8.512;2023-06-10T14:55:12;41.30;1.00
6443;DHT22;3254;47.372;8.512;2023-06-10T14:57:37;42.30;1.00
6443;DHT22;3254;47.372;8.512;2023-06-10T15:00:03;42.50;1.00
6443;DHT22;3254;47.372;8.512;2023-06-10T15:02:31;41.90;1.00
6443;DHT22;3254;47.372;8.512;2023-06-10T15:04:56;40.10;1.00
6443;DHT22;3254;47.372;8.512;2023-06-10T15:07:22;39.20;1.00
6443;DHT22;3254;47.372;8.512;2023-06-10T15:09:47;39.50;1.00
6443;DHT22;3254;47.372;8.512;2023-06-10T15:12:13;39.70;1.00
6443;DHT22;3254;47.372;8.512;2023-06-10T15:14:38;39.90;1.00
6443;DHT22;3254;47.372;8.512;2023-06-10T15:17:04;38.10;1.00
6443;DHT22;3254;47.372;8.512;2023-06-10T15:19:29;37.10;1.00
6443;DHT22;3254;47.372;8.512;2023-06-10T15:21:56;36.60;1.00
6443;DHT22;3254;47.372;8.512;2023-06-10T15:24:22;37.30;1.00
6443;DHT22;3254;47.372;8.512;2023-06-10T15:26:47;38.20;1.00
6443;DHT22;3254;47.372;8.512;2023-06-10T15:29:13;39.30;1.00
6443;DHT22;3254;47.372;8.512;2023-06-10T15:31:38;39.90;1.00
6443;DHT22;3254;47.372;8.512;2023-06-10T15:34:04;39.60;1.00
6443;DHT22;3254;47.372;8.512;2023-06-10T15:36:30;40.70;1.00
6443;DHT22;3254;47.372;8.512;2023-06-10T15:39:03;41.20;1.00
6443;DHT22;3254;47.372;8.512;2023-06-10T15:41:31;41.40;1.00
6443;DHT22;3254;47.372;8.512;2023-06-10T15:43:57;41.90;1.00
6443;DHT22;3254;47.372;8.512;2023-06-10T15:46:26;41.70;1.00
6443;DHT22;3254;47.372;8.512;2023-06-10T15:48:52;42.00;1.00
6443;DHT22;3254;47.372;8.512;2023-06-10T15:51:19;41.80;1.00
6443;DHT22;3254;47.372;8.512;2023-06-10T15:53:45;41.20;1.00
6443;DHT22;3254;47.372;8.512;2023-06-10T15:56:13;40.00;1.00
6443;DHT22;3254;47.372;8.512;2023-06-10T15:58:40;38.30;1.00
6443;DHT22;3254;47.372;8.512;2023-06-10T16:01:06;36.90;1.00
6443;DHT22;3254;47.372;8.512;2023-06-10T16:03:35;36.10;1.00
6443;DHT22;3254;47.372;8.512;2023-06-10T16:06:01;35.40;1.00
6443;DHT22;3254;47.372;8.512;2023-06-10T16:08:27;34.90;1.00
6443;DHT22;3254;47.372;8.512;2023-06-10T16:10:54;34.30;1.00
6443;DHT22;3254;47.372;8.512;2023-06-10T16:13:20;34.60;1.00
6443;DHT22;3254;47.372;8.512;2023-06-10T16:15:45;34.70;1.00
6443;DHT22;3254;47.372;8.512;2023-06-10T16:18:11;35.00;1.00
6443;DHT22;3254;47.372;8.512;2023-06-10T16:20:38;34.40;1.00
6443;DHT22;3254;47.372;8.512;2023-06-10T16:23:04;33.80;1.00
6443;DHT22;3254;47.372;8.512;2023-06-10T16:25:31;33.40;1.00